createdAt,value
2019-03-22T00:01:10.145Z,95.60
2019-03-22T00:06:11.765Z,95.70
2019-03-22T00:11:13.408Z,95.80
2019-03-22T00:16:14.909Z,96.20
2019-03-22T00:21:16.357Z,96.30
2019-03-22T00:26:18.146Z,96.40
2019-03-22T00:31:19.679Z,96.30
2019-03-22T00:36:21.516Z,96.40
2019-03-22T00:41:23.479Z,96.40
2019-03-22T00:46:25.126Z,96.60
2019-03-22T00:51:26.799Z,96.50
2019-03-22T00:56:28.216Z,96.40
2019-03-22T01:01:29.897Z,96.40
2019-03-22T01:06:31.417Z,96.10
2019-03-22T01:11:33.099Z,96.20
2019-03-22T01:16:38.545Z,96.30
2019-03-22T01:21:39.941Z,96.30
2019-03-22T01:26:41.353Z,96.30
2019-03-22T01:31:42.988Z,96.20
2019-03-22T01:36:44.592Z,96.20
2019-03-22T01:41:48.254Z,96.50
2019-03-22T01:46:50.375Z,96.80
2019-03-22T01:51:52.022Z,97.10
2019-03-22T01:56:56.808Z,96.90
2019-03-22T02:01:58.472Z,96.80
2019-03-22T02:06:59.955Z,97.20
2019-03-22T02:12:01.294Z,97.50
2019-03-22T02:17:03.671Z,97.80
2019-03-22T02:22:05.285Z,97.90
2019-03-22T02:27:07.011Z,97.90
2019-03-22T02:32:08.662Z,98.10
2019-03-22T02:37:11.144Z,98.20
2019-03-22T02:42:12.803Z,98.30
2019-03-22T02:47:14.478Z,98.30
2019-03-22T02:52:15.911Z,98.20
2019-03-22T02:57:17.301Z,98.30
2019-03-22T03:02:18.841Z,98.20
2019-03-22T03:07:24.791Z,98.30
2019-03-22T03:12:28.100Z,98.50
2019-03-22T03:17:31.086Z,98.60
2019-03-22T03:22:32.619Z,98.40
2019-03-22T03:27:34.136Z,98.50
2019-03-22T03:32:35.631Z,98.40
2019-03-22T03:37:37.443Z,98.40
2019-03-22T03:42:39.049Z,98.50
2019-03-22T03:47:40.776Z,98.60
2019-03-22T03:52:42.409Z,98.80
2019-03-22T03:57:43.984Z,98.80
2019-03-22T04:02:45.461Z,98.80
2019-03-22T04:07:50.247Z,98.80
2019-03-22T04:12:51.730Z,99.00
2019-03-22T04:17:53.224Z,99.00
2019-03-22T04:22:55.090Z,99.00
2019-03-22T04:27:59.585Z,98.80
2019-03-22T04:33:01.004Z,98.90
2019-03-22T04:38:02.535Z,98.80
2019-03-22T04:43:06.651Z,98.80
2019-03-22T04:48:16.543Z,98.70
2019-03-22T04:53:23.857Z,98.70
2019-03-22T04:58:28.650Z,98.70
2019-03-22T05:03:33.534Z,98.70
2019-03-22T05:08:38.213Z,98.60
2019-03-22T05:13:43.546Z,98.60
2019-03-22T05:18:48.116Z,98.60
2019-03-22T05:23:53.666Z,98.50
2019-03-22T05:28:55.824Z,98.50
2019-03-22T05:33:57.280Z,98.50
2019-03-22T05:39:00.178Z,98.50
2019-03-22T05:44:01.844Z,98.50
2019-03-22T05:49:03.354Z,98.40
2019-03-22T05:54:06.843Z,98.50
2019-03-22T05:59:08.517Z,98.40
2019-03-22T06:04:10.314Z,98.40
2019-03-22T06:09:11.942Z,98.50
2019-03-22T06:14:13.256Z,98.50
2019-03-22T06:19:14.862Z,98.50
2019-03-22T06:24:16.641Z,98.50
2019-03-22T06:29:18.036Z,98.50
2019-03-22T06:34:20.499Z,98.50
2019-03-22T06:39:21.918Z,98.50
2019-03-22T06:44:23.880Z,98.50
2019-03-22T06:49:27.184Z,98.40
2019-03-22T06:54:31.938Z,98.50
2019-03-22T06:59:36.591Z,98.30
2019-03-22T07:04:40.384Z,98.30
2019-03-22T07:09:41.699Z,98.30
2019-03-22T07:14:44.445Z,98.30
2019-03-22T07:19:46.189Z,98.40
2019-03-22T07:24:50.296Z,98.40
2019-03-22T07:29:51.679Z,98.40
2019-03-22T07:34:53.057Z,98.30
2019-03-22T07:39:54.453Z,98.30
2019-03-22T07:44:56.041Z,98.30
2019-03-22T07:49:57.397Z,98.30
2019-03-22T07:54:58.890Z,98.30
2019-03-22T08:00:00.887Z,98.20
2019-03-22T08:05:04.485Z,98.20
2019-03-22T08:10:07.717Z,98.10
2019-03-22T08:15:11.155Z,98.00
2019-03-22T08:20:13.637Z,98.00
2019-03-22T08:25:15.496Z,97.90
2019-03-22T08:30:42.966Z,97.90
2019-03-22T08:35:39.408Z,97.90
2019-03-22T08:40:41.263Z,97.70
2019-03-22T08:46:01.458Z,97.60
2019-03-22T08:51:03.257Z,97.50
2019-03-22T08:56:05.013Z,97.30
2019-03-22T09:01:07.041Z,97.40
2019-03-22T09:06:08.493Z,97.30
2019-03-22T09:11:10.885Z,97.10
2019-03-22T09:16:12.419Z,96.90
2019-03-22T09:21:14.029Z,96.80
2019-03-22T09:26:15.429Z,96.60
2019-03-22T09:31:16.989Z,96.30
2019-03-22T09:36:18.510Z,96.00
2019-03-22T09:41:20.252Z,95.90
2019-03-22T09:46:22.122Z,95.70
2019-03-22T09:51:23.530Z,95.50
2019-03-22T09:56:24.904Z,95.50
2019-03-22T10:01:26.392Z,95.20
2019-03-22T10:06:27.826Z,94.70
2019-03-22T10:11:29.413Z,94.20
2019-03-22T10:16:31.177Z,94.40
2019-03-22T10:21:32.668Z,94.20
2019-03-22T10:26:34.305Z,94.10
2019-03-22T10:31:37.800Z,94.00
2019-03-22T10:36:40.655Z,93.80
2019-03-22T10:41:42.150Z,93.70
2019-03-22T10:46:44.959Z,93.60
2019-03-22T10:51:56.757Z,93.50
2019-03-22T10:56:52.125Z,93.40
2019-03-22T11:02:03.144Z,93.30
2019-03-22T11:06:58.955Z,93.30
2019-03-22T11:12:11.755Z,93.00
2019-03-22T11:17:05.809Z,92.70
2019-03-22T11:22:07.323Z,92.20
2019-03-22T11:27:09.021Z,92.00
2019-03-22T11:32:12.867Z,91.50
2019-03-22T11:37:14.169Z,90.90
2019-03-22T11:42:17.385Z,90.80
2019-03-22T11:47:21.356Z,90.20
2019-03-22T11:52:25.385Z,90.00
2019-03-22T11:57:27.883Z,89.40
2019-03-22T12:02:30.564Z,88.20
2019-03-22T12:07:32.147Z,87.10
2019-03-22T12:12:33.614Z,87.00
2019-03-22T12:17:35.023Z,84.60
2019-03-22T12:22:38.553Z,81.50
2019-03-22T12:27:40.397Z,80.50
2019-03-22T12:32:42.161Z,78.10
2019-03-22T12:37:44.555Z,76.40
2019-03-22T12:42:46.603Z,76.00
2019-03-22T12:47:51.618Z,74.10
2019-03-22T12:52:56.140Z,72.90
2019-03-22T12:57:59.509Z,71.60
2019-03-22T13:03:04.529Z,70.40
2019-03-22T13:08:06.746Z,67.50
2019-03-22T13:13:08.254Z,67.40
2019-03-22T13:18:09.648Z,65.80
2019-03-22T13:23:11.137Z,64.30
2019-03-22T13:28:12.499Z,63.90
2019-03-22T13:33:16.343Z,61.90
2019-03-22T13:38:23.854Z,60.20
2019-03-22T13:43:26.618Z,59.00
2019-03-22T13:48:28.076Z,58.20
2019-03-22T13:53:29.992Z,58.00
2019-03-22T13:58:33.429Z,58.20
2019-03-22T14:03:34.894Z,57.50
2019-03-22T14:08:36.239Z,57.10
2019-03-22T14:13:39.736Z,57.70
2019-03-22T14:18:43.100Z,57.70
2019-03-22T14:23:44.857Z,57.30
2019-03-22T14:28:46.230Z,57.40
2019-03-22T14:33:49.522Z,57.40
2019-03-22T14:38:51.257Z,56.90
2019-03-22T14:43:53.707Z,56.50
2019-03-22T14:48:55.428Z,56.30
2019-03-22T14:53:59.177Z,55.90
2019-03-22T14:59:00.756Z,56.10
2019-03-22T15:04:02.419Z,56.10
2019-03-22T15:09:06.171Z,56.30
2019-03-22T15:14:28.942Z,56.20
2019-03-22T15:19:52.077Z,56.10
2019-03-22T15:25:13.352Z,55.90
2019-03-22T15:30:35.705Z,56.00
2019-03-22T15:35:45.144Z,55.80
2019-03-22T15:40:46.751Z,55.60
2019-03-22T15:45:48.817Z,56.10
2019-03-22T15:50:50.419Z,56.00
2019-03-22T15:55:53.609Z,55.70
2019-03-22T16:00:55.095Z,56.10
2019-03-22T16:06:00.045Z,56.10
2019-03-22T16:11:03.172Z,56.30
2019-03-22T16:16:04.582Z,56.70
2019-03-22T16:21:08.316Z,56.70
2019-03-22T16:26:13.705Z,57.20
2019-03-22T16:31:16.234Z,57.50
2019-03-22T16:36:19.741Z,57.10
2019-03-22T16:41:21.622Z,57.00
2019-03-22T16:46:23.467Z,57.00
2019-03-22T16:51:25.660Z,57.20
2019-03-22T16:56:30.154Z,57.00
2019-03-22T17:01:31.734Z,56.90
2019-03-22T17:06:38.313Z,57.10
2019-03-22T17:11:42.997Z,57.10
2019-03-22T17:16:51.446Z,57.30
2019-03-22T17:21:52.991Z,57.50
2019-03-22T17:26:56.356Z,57.90
2019-03-22T17:31:57.887Z,58.40
2019-03-22T17:36:59.319Z,59.90
2019-03-22T17:42:02.195Z,59.40
2019-03-22T17:47:03.961Z,59.50
2019-03-22T17:52:07.363Z,61.50
2019-03-22T17:57:18.557Z,63.80
2019-03-22T18:02:16.433Z,65.40
2019-03-22T18:07:18.117Z,66.10
2019-03-22T18:12:21.581Z,66.50
2019-03-22T18:17:23.374Z,67.20
2019-03-22T18:22:24.931Z,67.60
2019-03-22T18:27:26.482Z,69.00
2019-03-22T18:32:30.002Z,68.60
2019-03-22T18:37:31.669Z,69.10
2019-03-22T18:42:33.281Z,69.80
2019-03-22T18:47:36.697Z,70.90
2019-03-22T18:52:38.254Z,72.30
2019-03-22T18:57:40.183Z,73.20
2019-03-22T19:02:44.005Z,74.10
2019-03-22T19:07:45.844Z,74.90
2019-03-22T19:12:47.442Z,76.50
2019-03-22T19:17:49.075Z,78.10
2019-03-22T19:22:50.595Z,79.40
2019-03-22T19:27:52.591Z,80.60
2019-03-22T19:32:54.194Z,81.50
2019-03-22T19:37:58.072Z,81.90
2019-03-22T19:42:59.473Z,82.30
2019-03-22T19:48:01.265Z,83.10
2019-03-22T19:53:03.061Z,84.20
2019-03-22T19:58:06.368Z,84.90
2019-03-22T20:03:08.586Z,85.40
2019-03-22T20:08:13.875Z,86.20
2019-03-22T20:13:15.998Z,87.10
2019-03-22T20:18:17.549Z,88.30
2019-03-22T20:23:19.240Z,88.80
2019-03-22T20:28:20.614Z,89.60
2019-03-22T20:33:22.512Z,90.30
2019-03-22T20:38:28.315Z,90.70
2019-03-22T20:43:31.969Z,91.30
2019-03-22T20:48:35.378Z,91.70
2019-03-22T20:53:38.688Z,92.40
2019-03-22T20:58:41.286Z,92.20
2019-03-22T21:03:42.881Z,92.70
2019-03-22T21:08:44.664Z,92.70
2019-03-22T21:13:46.120Z,93.00
2019-03-22T21:18:48.336Z,93.30
2019-03-22T21:23:49.951Z,93.40
2019-03-22T21:28:52.467Z,93.70
2019-03-22T21:33:54.566Z,93.60
2019-03-22T21:38:56.220Z,93.70
2019-03-22T21:43:57.980Z,93.90
2019-03-22T21:48:59.551Z,93.90
2019-03-22T21:54:02.480Z,94.10
2019-03-22T21:59:08.219Z,94.60
2019-03-22T22:04:09.836Z,94.80
2019-03-22T22:09:11.247Z,94.80
2019-03-22T22:14:14.533Z,95.00
2019-03-22T22:19:17.290Z,95.10
2019-03-22T22:24:18.850Z,95.10
2019-03-22T22:29:20.304Z,95.40
2019-03-22T22:34:24.971Z,95.40
2019-03-22T22:39:26.881Z,95.40
2019-03-22T22:44:28.691Z,95.40
2019-03-22T22:49:30.139Z,95.40
2019-03-22T22:54:33.477Z,95.60
2019-03-22T22:59:34.856Z,95.50
2019-03-22T23:04:38.416Z,95.50
2019-03-22T23:09:40.339Z,95.60
2019-03-22T23:14:41.649Z,95.40
2019-03-22T23:19:43.052Z,95.40
2019-03-22T23:24:47.512Z,95.30
2019-03-22T23:29:49.185Z,95.20
2019-03-22T23:34:59.027Z,95.30
2019-03-22T23:39:56.289Z,95.20
2019-03-22T23:44:57.702Z,95.20
2019-03-22T23:49:59.092Z,95.10
2019-03-22T23:55:00.575Z,95.00
